»·PEaware :: N374SA KSBA-KBUR

N374SA :: KSBA-KBUR

FLIGHT INFORMATION

Flight Status: Arrived
Operator: Privately registered:
United States
More flights under this callsign
Pilot: Michael S. (17605)
Aircraft: CESSNA 172 SKYHAWK
(C172)
More flights by this aircraft type
Origin: KSBA Santa Barbara Mun
United States
Destination: KBUR Bob Hope-Burbank
United States
More flights between these airports :: More routes between these airports
Route: +
File this flight plan on PilotEdge
Remarks:
Altitude:
(Current/Filed)
0ft
Speed:
(Current/Filed)
0kts
Departed: 08-Jan-18 04:29 PM
Arrived: 08-Jan-18 05:10 PM
Distance/Time
Traveled:
75nm/0:41
Distance/Time
To Go:
Arrived

Flight Plot

Page will automatically refresh every two minutes.


Map Options




Map Legend


Flown Route
Filed Route
Departure Airport
Arrival Airport
Navaid (VOR, NDB)
Fix

Horizontal Profiles

Position Reports

Time Latitude Longitude Heading Altitude Ground
Speed
08-Jan-18 16:26 34.432569 -119.835085 71 17ft 0kts
08-Jan-18 16:27 34.432569 -119.835085 71 17ft 0kts
08-Jan-18 16:28 34.432569 -119.835085 71 17ft 0kts
08-Jan-18 16:29 34.432569 -119.835085 71 17ft 0kts
08-Jan-18 16:30 34.432151 -119.835557 182 17ft 0kts
08-Jan-18 16:31 34.432070 -119.835721 235 17ft 15kts
08-Jan-18 16:32 34.430832 -119.839489 247 17ft 0kts
08-Jan-18 16:33 34.430832 -119.839489 247 17ft 0kts
08-Jan-18 16:34 34.430832 -119.839489 247 17ft 0kts
08-Jan-18 16:35 34.420730 -119.836747 160 437ft 68kts
08-Jan-18 16:36 34.398863 -119.827193 161 1149ft 107kts
08-Jan-18 16:37 34.369075 -119.814905 161 1654ft 115kts
08-Jan-18 16:38 34.338905 -119.802533 162 2151ft 114kts
08-Jan-18 16:39 34.308830 -119.790092 162 2651ft 113kts
08-Jan-18 16:40 34.279537 -119.776347 157 3149ft 113kts
08-Jan-18 16:41 34.262005 -119.749141 93 3649ft 117kts
08-Jan-18 16:42 34.261786 -119.709897 89 4147ft 117kts
08-Jan-18 16:43 34.260429 -119.670388 95 4646ft 117kts
08-Jan-18 16:44 34.258719 -119.633326 94 5114ft 118kts
08-Jan-18 16:45 34.257194 -119.595986 94 5909ft 98kts
08-Jan-18 16:46 34.256060 -119.565278 95 6760ft 89kts
08-Jan-18 16:47 34.254857 -119.534975 95 7486ft 92kts
08-Jan-18 16:48 34.253025 -119.495667 95 7509ft 126kts
08-Jan-18 16:49 34.251231 -119.454285 94 7509ft 128kts
08-Jan-18 16:50 34.249394 -119.411192 94 7509ft 129kts
08-Jan-18 16:51 34.247566 -119.367810 94 7509ft 130kts
08-Jan-18 16:52 34.245742 -119.324946 95 7507ft 129kts
08-Jan-18 16:53 34.243894 -119.281589 95 7507ft 129kts
08-Jan-18 16:54 34.242038 -119.238333 95 7505ft 129kts
08-Jan-18 16:55 34.240198 -119.195899 95 7501ft 128kts
08-Jan-18 16:56 34.238324 -119.152989 95 7498ft 128kts
08-Jan-18 16:57 34.236432 -119.110078 96 7495ft 127kts
08-Jan-18 16:58 34.234536 -119.067414 96 7492ft 127kts
08-Jan-18 16:59 34.232649 -119.025021 96 7490ft 126kts
08-Jan-18 17:00 34.230719 -118.982608 96 7491ft 126kts
08-Jan-18 17:01 34.228740 -118.940216 96 7491ft 126kts
08-Jan-18 17:02 34.226676 -118.898402 95 7491ft 126kts
08-Jan-18 17:03 34.224706 -118.856185 95 7492ft 125kts
08-Jan-18 17:04 34.222811 -118.814022 95 7492ft 125kts
08-Jan-18 17:05 34.220952 -118.775040 95 7739ft 121kts
08-Jan-18 17:06 34.218983 -118.733337 95 7737ft 125kts
08-Jan-18 17:07 34.216996 -118.691061 95 7735ft 125kts
08-Jan-18 17:08 34.214988 -118.648878 96 7650ft 131kts
08-Jan-18 17:09 34.212717 -118.602142 95 7015ft 144kts
08-Jan-18 17:10 34.210342 -118.552999 95 6122ft 147kts
08-Jan-18 17:11 34.208372 -118.513499 97 5115ft 108kts
08-Jan-18 17:12 34.206587 -118.477229 96 4114ft 110kts
08-Jan-18 17:13 34.204738 -118.439925 95 3109ft 113kts
08-Jan-18 17:14 34.202866 -118.402075 95 2105ft 111kts
08-Jan-18 17:15 34.197960 -118.369337 94 922ft 82kts
08-Jan-18 17:16 34.197162 -118.360239 168 781ft 10kts
08-Jan-18 17:17 34.196489 -118.360032 162 781ft 16kts

Navigation Log

Ident Type
1. KSBA Airport
2. KBUR Airport